sensor_id;sensor_type;location;lat;lon;timestamp;P1;durP1;ratioP1;P2;durP2;ratioP2
47009;SDS011;59230;54.164;-3.124;2023-04-28T00:01:39;58.20;;;37.13;;
47009;SDS011;59230;54.164;-3.124;2023-04-28T00:04:05;56.78;;;34.65;;
47009;SDS011;59230;54.164;-3.124;2023-04-28T00:06:31;53.80;;;35.25;;
47009;SDS011;59230;54.164;-3.124;2023-04-28T00:08:58;47.55;;;33.58;;
47009;SDS011;59230;54.164;-3.124;2023-04-28T00:11:25;50.45;;;33.40;;
47009;SDS011;59230;54.164;-3.124;2023-04-28T00:13:52;44.95;;;33.72;;
47009;SDS011;59230;54.164;-3.124;2023-04-28T00:16:20;52.60;;;33.92;;
47009;SDS011;59230;54.164;-3.124;2023-04-28T00:18:47;45.70;;;32.22;;
47009;SDS011;59230;54.164;-3.124;2023-04-28T00:21:12;49.80;;;33.55;;
47009;SDS011;59230;54.164;-3.124;2023-04-28T00:23:41;50.22;;;32.42;;
47009;SDS011;59230;54.164;-3.124;2023-04-28T00:26:07;48.58;;;31.40;;
47009;SDS011;59230;54.164;-3.124;2023-04-28T00:28:32;48.42;;;32.38;;
47009;SDS011;59230;54.164;-3.124;2023-04-28T00:31:00;54.38;;;34.72;;
47009;SDS011;59230;54.164;-3.124;2023-04-28T00:33:36;48.22;;;29.60;;
47009;SDS011;59230;54.164;-3.124;2023-04-28T00:36:02;38.80;;;27.00;;
47009;SDS011;59230;54.164;-3.124;2023-04-28T00:38:30;41.28;;;28.55;;
47009;SDS011;59230;54.164;-3.124;2023-04-28T00:40:56;41.08;;;28.65;;
47009;SDS011;59230;54.164;-3.124;2023-04-28T00:43:23;35.10;;;25.23;;
47009;SDS011;59230;54.164;-3.124;2023-04-28T00:45:52;36.95;;;24.92;;
47009;SDS011;59230;54.164;-3.124;2023-04-28T00:48:19;31.58;;;23.70;;
47009;SDS011;59230;54.164;-3.124;2023-04-28T00:50:48;34.45;;;24.73;;
47009;SDS011;59230;54.164;-3.124;2023-04-28T00:53:14;33.55;;;24.25;;
47009;SDS011;59230;54.164;-3.124;2023-04-28T00:55:40;32.33;;;23.30;;
47009;SDS011;59230;54.164;-3.124;2023-04-28T00:58:08;31.88;;;22.63;;
47009;SDS011;59230;54.164;-3.124;2023-04-28T01:00:35;33.88;;;23.98;;
47009;SDS011;59230;54.164;-3.124;2023-04-28T01:03:01;32.25;;;23.08;;
47009;SDS011;59230;54.164;-3.124;2023-04-28T01:05:27;33.88;;;23.80;;
47009;SDS011;59230;54.164;-3.124;2023-04-28T01:07:53;34.75;;;24.90;;
47009;SDS011;59230;54.164;-3.124;2023-04-28T01:10:19;38.47;;;24.95;;
47009;SDS011;59230;54.164;-3.124;2023-04-28T01:12:46;38.20;;;25.63;;
47009;SDS011;59230;54.164;-3.124;2023-04-28T01:15:16;39.88;;;26.60;;
47009;SDS011;59230;54.164;-3.124;2023-04-28T01:17:44;41.70;;;27.27;;
47009;SDS011;59230;54.164;-3.124;2023-04-28T01:20:12;41.00;;;26.45;;
47009;SDS011;59230;54.164;-3.124;2023-04-28T01:22:40;38.40;;;26.23;;
47009;SDS011;59230;54.164;-3.124;2023-04-28T01:25:06;40.20;;;25.50;;
47009;SDS011;59230;54.164;-3.124;2023-04-28T01:27:33;41.35;;;27.90;;
47009;SDS011;59230;54.164;-3.124;2023-04-28T01:30:01;39.50;;;28.15;;
47009;SDS011;59230;54.164;-3.124;2023-04-28T01:32:28;39.95;;;26.35;;
47009;SDS011;59230;54.164;-3.124;2023-04-28T01:34:55;41.67;;;27.95;;
47009;SDS011;59230;54.164;-3.124;2023-04-28T01:37:23;43.10;;;27.42;;
47009;SDS011;59230;54.164;-3.124;2023-04-28T01:39:51;41.63;;;27.48;;
47009;SDS011;59230;54.164;-3.124;2023-04-28T01:42:19;44.03;;;28.88;;
47009;SDS011;59230;54.164;-3.124;2023-04-28T01:44:45;43.35;;;29.30;;
47009;SDS011;59230;54.164;-3.124;2023-04-28T01:47:12;42.72;;;26.90;;
47009;SDS011;59230;54.164;-3.124;2023-04-28T01:49:37;39.45;;;26.95;;
47009;SDS011;59230;54.164;-3.124;2023-04-28T01:52:04;31.55;;;20.75;;
47009;SDS011;59230;54.164;-3.124;2023-04-28T01:54:32;29.52;;;20.85;;
47009;SDS011;59230;54.164;-3.124;2023-04-28T01:56:59;28.10;;;18.92;;
47009;SDS011;59230;54.164;-3.124;2023-04-28T01:59:25;25.55;;;18.20;;
47009;SDS011;59230;54.164;-3.124;2023-04-28T02:01:51;26.88;;;18.50;;
47009;SDS011;59230;54.164;-3.124;2023-04-28T02:04:16;27.50;;;19.95;;
47009;SDS011;59230;54.164;-3.124;2023-04-28T02:06:45;31.25;;;20.67;;
47009;SDS011;59230;54.164;-3.124;2023-04-28T02:09:12;32.63;;;22.48;;
47009;SDS011;59230;54.164;-3.124;2023-04-28T02:11:38;31.58;;;22.42;;
47009;SDS011;59230;54.164;-3.124;2023-04-28T02:14:07;33.83;;;22.73;;
47009;SDS011;59230;54.164;-3.124;2023-04-28T02:16:34;31.58;;;21.45;;
47009;SDS011;59230;54.164;-3.124;2023-04-28T02:19:02;29.75;;;21.45;;
47009;SDS011;59230;54.164;-3.124;2023-04-28T02:21:30;33.65;;;22.13;;
47009;SDS011;59230;54.164;-3.124;2023-04-28T02:23:58;29.90;;;20.90;;
47009;SDS011;59230;54.164;-3.124;2023-04-28T02:26:26;32.60;;;21.98;;
47009;SDS011;59230;54.164;-3.124;2023-04-28T02:28:55;31.10;;;20.52;;
47009;SDS011;59230;54.164;-3.124;2023-04-28T02:31:24;31.40;;;21.55;;
47009;SDS011;59230;54.164;-3.124;2023-04-28T02:33:51;31.10;;;21.40;;
47009;SDS011;59230;54.164;-3.124;2023-04-28T02:36:18;33.03;;;21.35;;
47009;SDS011;59230;54.164;-3.124;2023-04-28T02:38:43;28.83;;;21.15;;
47009;SDS011;59230;54.164;-3.124;2023-04-28T02:41:09;30.13;;;21.65;;
47009;SDS011;59230;54.164;-3.124;2023-04-28T02:43:41;31.90;;;21.88;;
47009;SDS011;59230;54.164;-3.124;2023-04-28T02:46:07;33.95;;;21.05;;
47009;SDS011;59230;54.164;-3.124;2023-04-28T02:48:33;33.25;;;21.48;;
47009;SDS011;59230;54.164;-3.124;2023-04-28T02:51:04;37.50;;;23.10;;
47009;SDS011;59230;54.164;-3.124;2023-04-28T02:53:30;30.45;;;21.38;;
47009;SDS011;59230;54.164;-3.124;2023-04-28T02:55:57;30.65;;;20.65;;
47009;SDS011;59230;54.164;-3.124;2023-04-28T02:58:27;25.73;;;19.15;;
47009;SDS011;59230;54.164;-3.124;2023-04-28T03:00:54;27.05;;;19.92;;
47009;SDS011;59230;54.164;-3.124;2023-04-28T03:03:23;25.90;;;18.60;;
47009;SDS011;59230;54.164;-3.124;2023-04-28T03:05:51;27.05;;;19.17;;
47009;SDS011;59230;54.164;-3.124;2023-04-28T03:08:18;31.63;;;18.92;;
47009;SDS011;59230;54.164;-3.124;2023-04-28T03:10:45;27.02;;;19.60;;
47009;SDS011;59230;54.164;-3.124;2023-04-28T03:13:13;28.17;;;19.95;;
47009;SDS011;59230;54.164;-3.124;2023-04-28T03:15:39;27.70;;;19.30;;
47009;SDS011;59230;54.164;-3.124;2023-04-28T03:18:04;30.63;;;20.30;;
47009;SDS011;59230;54.164;-3.124;2023-04-28T03:20:34;26.23;;;20.00;;
47009;SDS011;59230;54.164;-3.124;2023-04-28T03:23:01;29.70;;;20.70;;
47009;SDS011;59230;54.164;-3.124;2023-04-28T03:25:26;31.92;;;21.52;;
47009;SDS011;59230;54.164;-3.124;2023-04-28T03:27:55;32.95;;;21.38;;
47009;SDS011;59230;54.164;-3.124;2023-04-28T03:30:21;31.67;;;21.17;;
47009;SDS011;59230;54.164;-3.124;2023-04-28T03:32:49;33.50;;;22.75;;
47009;SDS011;59230;54.164;-3.124;2023-04-28T03:35:15;35.45;;;21.90;;
47009;SDS011;59230;54.164;-3.124;2023-04-28T03:37:42;39.03;;;23.33;;
47009;SDS011;59230;54.164;-3.124;2023-04-28T03:40:10;38.00;;;23.45;;
47009;SDS011;59230;54.164;-3.124;2023-04-28T03:42:38;42.13;;;23.15;;
47009;SDS011;59230;54.164;-3.124;2023-04-28T03:45:04;47.38;;;25.23;;
47009;SDS011;59230;54.164;-3.124;2023-04-28T03:47:33;40.42;;;24.02;;
47009;SDS011;59230;54.164;-3.124;2023-04-28T03:49:59;40.78;;;24.55;;
47009;SDS011;59230;54.164;-3.124;2023-04-28T03:52:25;46.95;;;24.92;;
47009;SDS011;59230;54.164;-3.124;2023-04-28T03:54:51;40.13;;;23.60;;
47009;SDS011;59230;54.164;-3.124;2023-04-28T03:57:21;41.25;;;24.30;;
47009;SDS011;59230;54.164;-3.124;2023-04-28T03:59:48;49.17;;;25.15;;
47009;SDS011;59230;54.164;-3.124;2023-04-28T04:02:13;41.50;;;25.42;;
47009;SDS011;59230;54.164;-3.124;2023-04-28T04:04:39;50.92;;;26.48;;
47009;SDS011;59230;54.164;-3.124;2023-04-28T04:07:05;49.08;;;26.50;;
47009;SDS011;59230;54.164;-3.124;2023-04-28T04:09:33;55.50;;;27.65;;
47009;SDS011;59230;54.164;-3.124;2023-04-28T04:12:04;49.42;;;26.33;;
47009;SDS011;59230;54.164;-3.124;2023-04-28T04:14:31;45.13;;;25.52;;
47009;SDS011;59230;54.164;-3.124;2023-04-28T04:16:59;40.83;;;23.60;;
47009;SDS011;59230;54.164;-3.124;2023-04-28T04:19:27;41.40;;;24.27;;
47009;SDS011;59230;54.164;-3.124;2023-04-28T04:21:53;46.33;;;24.73;;
47009;SDS011;59230;54.164;-3.124;2023-04-28T04:24:21;45.55;;;24.45;;
47009;SDS011;59230;54.164;-3.124;2023-04-28T04:26:48;38.08;;;23.80;;
47009;SDS011;59230;54.164;-3.124;2023-04-28T04:29:13;42.33;;;24.27;;
47009;SDS011;59230;54.164;-3.124;2023-04-28T04:31:39;38.20;;;23.10;;
47009;SDS011;59230;54.164;-3.124;2023-04-28T04:34:07;42.63;;;24.23;;
47009;SDS011;59230;54.164;-3.124;2023-04-28T04:36:33;43.15;;;24.02;;
47009;SDS011;59230;54.164;-3.124;2023-04-28T04:38:58;44.92;;;23.00;;
47009;SDS011;59230;54.164;-3.124;2023-04-28T04:41:27;38.53;;;23.17;;
47009;SDS011;59230;54.164;-3.124;2023-04-28T04:43:53;41.80;;;23.17;;
47009;SDS011;59230;54.164;-3.124;2023-04-28T04:46:18;36.75;;;23.30;;
47009;SDS011;59230;54.164;-3.124;2023-04-28T04:48:44;38.72;;;23.15;;
47009;SDS011;59230;54.164;-3.124;2023-04-28T04:51:12;40.00;;;21.98;;
47009;SDS011;59230;54.164;-3.124;2023-04-28T04:53:37;45.08;;;23.00;;
47009;SDS011;59230;54.164;-3.124;2023-04-28T04:56:03;41.67;;;22.05;;
47009;SDS011;59230;54.164;-3.124;2023-04-28T04:58:30;36.85;;;21.77;;
47009;SDS011;59230;54.164;-3.124;2023-04-28T05:00:59;35.78;;;21.67;;
47009;SDS011;59230;54.164;-3.124;2023-04-28T05:03:27;31.58;;;20.40;;
47009;SDS011;59230;54.164;-3.124;2023-04-28T05:05:52;32.42;;;19.80;;
47009;SDS011;59230;54.164;-3.124;2023-04-28T05:08:19;32.85;;;19.63;;
47009;SDS011;59230;54.164;-3.124;2023-04-28T05:10:46;38.72;;;21.25;;
47009;SDS011;59230;54.164;-3.124;2023-04-28T05:13:13;33.40;;;19.45;;
47009;SDS011;59230;54.164;-3.124;2023-04-28T05:15:38;33.83;;;20.17;;
47009;SDS011;59230;54.164;-3.124;2023-04-28T05:18:04;32.17;;;20.40;;
47009;SDS011;59230;54.164;-3.124;2023-04-28T05:20:37;36.75;;;21.00;;
47009;SDS011;59230;54.164;-3.124;2023-04-28T05:23:06;35.38;;;20.27;;
47009;SDS011;59230;54.164;-3.124;2023-04-28T05:25:34;33.92;;;20.13;;
47009;SDS011;59230;54.164;-3.124;2023-04-28T05:28:01;43.40;;;21.27;;
47009;SDS011;59230;54.164;-3.124;2023-04-28T05:30:32;40.28;;;20.52;;
47009;SDS011;59230;54.164;-3.124;2023-04-28T05:33:01;41.17;;;20.30;;
47009;SDS011;59230;54.164;-3.124;2023-04-28T05:35:28;37.13;;;20.58;;
47009;SDS011;59230;54.164;-3.124;2023-04-28T05:37:57;36.20;;;20.67;;
47009;SDS011;59230;54.164;-3.124;2023-04-28T05:40:23;41.90;;;20.92;;
47009;SDS011;59230;54.164;-3.124;2023-04-28T05:42:50;36.17;;;21.08;;
47009;SDS011;59230;54.164;-3.124;2023-04-28T05:45:17;35.72;;;19.52;;
47009;SDS011;59230;54.164;-3.124;2023-04-28T05:47:47;34.80;;;19.35;;
47009;SDS011;59230;54.164;-3.124;2023-04-28T05:50:15;39.28;;;20.90;;
47009;SDS011;59230;54.164;-3.124;2023-04-28T05:52:42;42.35;;;20.50;;
47009;SDS011;59230;54.164;-3.124;2023-04-28T05:55:10;43.17;;;20.45;;
47009;SDS011;59230;54.164;-3.124;2023-04-28T05:57:38;36.72;;;18.42;;
47009;SDS011;59230;54.164;-3.124;2023-04-28T06:00:04;35.65;;;20.60;;
47009;SDS011;59230;54.164;-3.124;2023-04-28T06:02:34;36.35;;;20.10;;
47009;SDS011;59230;54.164;-3.124;2023-04-28T06:05:01;33.35;;;19.30;;
47009;SDS011;59230;54.164;-3.124;2023-04-28T06:07:26;31.67;;;18.83;;
47009;SDS011;59230;54.164;-3.124;2023-04-28T06:09:52;34.58;;;18.65;;
47009;SDS011;59230;54.164;-3.124;2023-04-28T06:12:17;33.95;;;18.85;;
47009;SDS011;59230;54.164;-3.124;2023-04-28T06:14:44;35.58;;;19.55;;
47009;SDS011;59230;54.164;-3.124;2023-04-28T06:17:11;28.80;;;18.00;;
47009;SDS011;59230;54.164;-3.124;2023-04-28T06:19:38;39.75;;;20.13;;
47009;SDS011;59230;54.164;-3.124;2023-04-28T06:22:06;32.47;;;17.55;;
47009;SDS011;59230;54.164;-3.124;2023-04-28T06:24:32;29.58;;;17.30;;
47009;SDS011;59230;54.164;-3.124;2023-04-28T06:26:57;28.00;;;17.00;;
47009;SDS011;59230;54.164;-3.124;2023-04-28T06:29:24;33.70;;;17.05;;
47009;SDS011;59230;54.164;-3.124;2023-04-28T06:31:49;24.70;;;15.65;;
47009;SDS011;59230;54.164;-3.124;2023-04-28T06:34:16;24.13;;;15.98;;
47009;SDS011;59230;54.164;-3.124;2023-04-28T06:36:44;21.67;;;14.65;;
47009;SDS011;59230;54.164;-3.124;2023-04-28T06:39:13;27.65;;;14.68;;
47009;SDS011;59230;54.164;-3.124;2023-04-28T06:41:40;19.10;;;14.63;;
47009;SDS011;59230;54.164;-3.124;2023-04-28T06:44:07;24.83;;;13.55;;
47009;SDS011;59230;54.164;-3.124;2023-04-28T06:46:35;25.30;;;13.80;;
47009;SDS011;59230;54.164;-3.124;2023-04-28T06:49:01;22.25;;;14.15;;
47009;SDS011;59230;54.164;-3.124;2023-04-28T06:51:26;20.05;;;13.38;;
47009;SDS011;59230;54.164;-3.124;2023-04-28T06:53:53;23.30;;;14.05;;
47009;SDS011;59230;54.164;-3.124;2023-04-28T06:56:20;19.17;;;12.82;;
47009;SDS011;59230;54.164;-3.124;2023-04-28T06:58:46;21.98;;;13.20;;
47009;SDS011;59230;54.164;-3.124;2023-04-28T07:01:13;17.75;;;12.52;;
47009;SDS011;59230;54.164;-3.124;2023-04-28T07:03:39;18.58;;;13.15;;
47009;SDS011;59230;54.164;-3.124;2023-04-28T07:06:05;19.00;;;12.45;;
47009;SDS011;59230;54.164;-3.124;2023-04-28T07:08:31;18.02;;;12.05;;
47009;SDS011;59230;54.164;-3.124;2023-04-28T07:10:58;20.55;;;12.27;;
47009;SDS011;59230;54.164;-3.124;2023-04-28T07:13:24;21.58;;;16.13;;
47009;SDS011;59230;54.164;-3.124;2023-04-28T07:15:50;18.65;;;10.70;;
47009;SDS011;59230;54.164;-3.124;2023-04-28T07:18:16;15.57;;;10.75;;
47009;SDS011;59230;54.164;-3.124;2023-04-28T07:20:43;17.92;;;11.23;;
47009;SDS011;59230;54.164;-3.124;2023-04-28T07:23:09;14.43;;;10.50;;
47009;SDS011;59230;54.164;-3.124;2023-04-28T07:25:39;15.40;;;10.07;;
47009;SDS011;59230;54.164;-3.124;2023-04-28T07:28:10;11.25;;;9.00;;
47009;SDS011;59230;54.164;-3.124;2023-04-28T07:30:39;12.93;;;9.07;;
47009;SDS011;59230;54.164;-3.124;2023-04-28T07:33:09;15.77;;;8.80;;
47009;SDS011;59230;54.164;-3.124;2023-04-28T07:35:34;15.77;;;9.27;;
47009;SDS011;59230;54.164;-3.124;2023-04-28T07:38:01;15.23;;;8.93;;
47009;SDS011;59230;54.164;-3.124;2023-04-28T07:40:27;14.18;;;8.52;;
47009;SDS011;59230;54.164;-3.124;2023-04-28T07:42:54;12.63;;;8.07;;
47009;SDS011;59230;54.164;-3.124;2023-04-28T07:45:21;11.07;;;8.75;;
47009;SDS011;59230;54.164;-3.124;2023-04-28T07:47:47;13.55;;;9.15;;
47009;SDS011;59230;54.164;-3.124;2023-04-28T07:50:12;11.80;;;8.35;;
47009;SDS011;59230;54.164;-3.124;2023-04-28T07:52:39;13.23;;;8.48;;
47009;SDS011;59230;54.164;-3.124;2023-04-28T07:55:04;13.02;;;8.38;;
47009;SDS011;59230;54.164;-3.124;2023-04-28T07:57:31;12.23;;;8.50;;
47009;SDS011;59230;54.164;-3.124;2023-04-28T07:59:57;10.02;;;8.05;;
47009;SDS011;59230;54.164;-3.124;2023-04-28T08:02:24;11.38;;;7.90;;
47009;SDS011;59230;54.164;-3.124;2023-04-28T08:04:51;13.95;;;8.07;;
47009;SDS011;59230;54.164;-3.124;2023-04-28T08:07:17;12.10;;;7.55;;
47009;SDS011;59230;54.164;-3.124;2023-04-28T08:09:43;8.88;;;7.45;;
47009;SDS011;59230;54.164;-3.124;2023-04-28T08:12:15;10.30;;;7.40;;
47009;SDS011;59230;54.164;-3.124;2023-04-28T08:14:41;14.32;;;8.52;;
47009;SDS011;59230;54.164;-3.124;2023-04-28T08:17:06;13.85;;;7.95;;
47009;SDS011;59230;54.164;-3.124;2023-04-28T08:19:32;12.70;;;8.30;;
47009;SDS011;59230;54.164;-3.124;2023-04-28T08:21:58;10.90;;;7.55;;
47009;SDS011;59230;54.164;-3.124;2023-04-28T08:24:34;9.98;;;7.68;;
47009;SDS011;59230;54.164;-3.124;2023-04-28T08:27:02;11.73;;;6.25;;
47009;SDS011;59230;54.164;-3.124;2023-04-28T08:29:30;9.20;;;6.13;;
47009;SDS011;59230;54.164;-3.124;2023-04-28T08:31:58;9.43;;;6.90;;
47009;SDS011;59230;54.164;-3.124;2023-04-28T08:34:27;8.93;;;6.60;;
47009;SDS011;59230;54.164;-3.124;2023-04-28T08:36:54;11.50;;;6.55;;
47009;SDS011;59230;54.164;-3.124;2023-04-28T08:39:20;10.13;;;6.68;;
47009;SDS011;59230;54.164;-3.124;2023-04-28T08:41:50;11.02;;;6.90;;
47009;SDS011;59230;54.164;-3.124;2023-04-28T08:44:17;9.88;;;6.32;;
47009;SDS011;59230;54.164;-3.124;2023-04-28T08:46:46;9.07;;;6.47;;
47009;SDS011;59230;54.164;-3.124;2023-04-28T08:49:17;9.38;;;6.50;;
47009;SDS011;59230;54.164;-3.124;2023-04-28T08:52:05;9.70;;;6.00;;
47009;SDS011;59230;54.164;-3.124;2023-04-28T08:54:34;11.63;;;6.47;;
47009;SDS011;59230;54.164;-3.124;2023-04-28T08:57:01;11.52;;;6.32;;
47009;SDS011;59230;54.164;-3.124;2023-04-28T08:59:29;7.93;;;6.28;;
47009;SDS011;59230;54.164;-3.124;2023-04-28T09:01:57;12.20;;;6.47;;
47009;SDS011;59230;54.164;-3.124;2023-04-28T09:04:25;10.48;;;6.78;;
47009;SDS011;59230;54.164;-3.124;2023-04-28T09:06:52;11.07;;;6.60;;
47009;SDS011;59230;54.164;-3.124;2023-04-28T09:09:26;11.65;;;7.55;;
47009;SDS011;59230;54.164;-3.124;2023-04-28T09:12:00;9.05;;;6.75;;
47009;SDS011;59230;54.164;-3.124;2023-04-28T09:14:29;10.48;;;6.68;;
47009;SDS011;59230;54.164;-3.124;2023-04-28T09:16:58;9.93;;;7.00;;
47009;SDS011;59230;54.164;-3.124;2023-04-28T09:19:35;10.32;;;7.07;;
47009;SDS011;59230;54.164;-3.124;2023-04-28T09:22:04;9.07;;;6.45;;
47009;SDS011;59230;54.164;-3.124;2023-04-28T09:27:09;10.27;;;7.28;;
47009;SDS011;59230;54.164;-3.124;2023-04-28T09:29:37;9.20;;;6.88;;
47009;SDS011;59230;54.164;-3.124;2023-04-28T09:39:47;8.57;;;6.20;;
47009;SDS011;59230;54.164;-3.124;2023-04-28T09:45:06;9.55;;;6.82;;
47009;SDS011;59230;54.164;-3.124;2023-04-28T09:47:39;13.57;;;6.93;;
47009;SDS011;59230;54.164;-3.124;2023-04-28T09:50:10;11.93;;;6.93;;
47009;SDS011;59230;54.164;-3.124;2023-04-28T09:52:40;9.95;;;6.63;;
47009;SDS011;59230;54.164;-3.124;2023-04-28T09:55:13;12.95;;;7.90;;
47009;SDS011;59230;54.164;-3.124;2023-04-28T09:57:39;14.00;;;7.75;;
47009;SDS011;59230;54.164;-3.124;2023-04-28T10:00:07;15.55;;;11.68;;
47009;SDS011;59230;54.164;-3.124;2023-04-28T10:02:34;25.20;;;16.58;;
47009;SDS011;59230;54.164;-3.124;2023-04-28T10:05:04;16.85;;;11.10;;
47009;SDS011;59230;54.164;-3.124;2023-04-28T10:07:34;14.50;;;9.40;;
47009;SDS011;59230;54.164;-3.124;2023-04-28T10:10:02;16.10;;;7.60;;
47009;SDS011;59230;54.164;-3.124;2023-04-28T10:12:29;7.38;;;5.80;;
47009;SDS011;59230;54.164;-3.124;2023-04-28T10:14:57;8.70;;;5.80;;
47009;SDS011;59230;54.164;-3.124;2023-04-28T10:17:27;10.13;;;6.00;;
47009;SDS011;59230;54.164;-3.124;2023-04-28T10:19:55;9.27;;;5.82;;
47009;SDS011;59230;54.164;-3.124;2023-04-28T10:27:58;18.45;;;12.68;;
47009;SDS011;59230;54.164;-3.124;2023-04-28T10:30:24;17.88;;;12.82;;
47009;SDS011;59230;54.164;-3.124;2023-04-28T10:35:48;21.90;;;15.20;;
47009;SDS011;59230;54.164;-3.124;2023-04-28T10:38:19;23.23;;;15.35;;
47009;SDS011;59230;54.164;-3.124;2023-04-28T10:56:22;24.83;;;17.20;;
47009;SDS011;59230;54.164;-3.124;2023-04-28T10:58:53;31.13;;;19.25;;
47009;SDS011;59230;54.164;-3.124;2023-04-28T11:04:06;38.10;;;18.73;;
47009;SDS011;59230;54.164;-3.124;2023-04-28T11:06:36;27.23;;;17.58;;
47009;SDS011;59230;54.164;-3.124;2023-04-28T11:17:09;32.65;;;19.83;;
47009;SDS011;59230;54.164;-3.124;2023-04-28T11:19:41;32.67;;;20.05;;
47009;SDS011;59230;54.164;-3.124;2023-04-28T11:22:18;31.50;;;17.98;;
47009;SDS011;59230;54.164;-3.124;2023-04-28T11:25:00;39.20;;;22.48;;
47009;SDS011;59230;54.164;-3.124;2023-04-28T11:27:32;46.50;;;27.07;;
47009;SDS011;59230;54.164;-3.124;2023-04-28T11:29:59;40.03;;;24.20;;
47009;SDS011;59230;54.164;-3.124;2023-04-28T11:32:27;38.28;;;22.00;;
47009;SDS011;59230;54.164;-3.124;2023-04-28T11:34:55;37.13;;;22.35;;
47009;SDS011;59230;54.164;-3.124;2023-04-28T11:37:21;37.63;;;22.25;;
47009;SDS011;59230;54.164;-3.124;2023-04-28T11:39:47;38.25;;;22.55;;
47009;SDS011;59230;54.164;-3.124;2023-04-28T11:42:13;34.28;;;19.60;;
47009;SDS011;59230;54.164;-3.124;2023-04-28T11:44:48;34.55;;;20.05;;
47009;SDS011;59230;54.164;-3.124;2023-04-28T11:47:16;36.47;;;19.15;;
47009;SDS011;59230;54.164;-3.124;2023-04-28T11:49:56;31.83;;;18.45;;
47009;SDS011;59230;54.164;-3.124;2023-04-28T11:52:22;36.97;;;21.38;;
47009;SDS011;59230;54.164;-3.124;2023-04-28T11:54:53;33.80;;;20.20;;
47009;SDS011;59230;54.164;-3.124;2023-04-28T11:57:21;35.55;;;22.02;;
47009;SDS011;59230;54.164;-3.124;2023-04-28T11:59:47;42.70;;;21.25;;
47009;SDS011;59230;54.164;-3.124;2023-04-28T12:02:15;39.50;;;21.98;;
47009;SDS011;59230;54.164;-3.124;2023-04-28T12:04:51;28.02;;;19.33;;
47009;SDS011;59230;54.164;-3.124;2023-04-28T12:07:17;32.25;;;19.38;;
47009;SDS011;59230;54.164;-3.124;2023-04-28T12:12:37;35.17;;;20.10;;
47009;SDS011;59230;54.164;-3.124;2023-04-28T12:15:03;31.00;;;20.33;;
47009;SDS011;59230;54.164;-3.124;2023-04-28T12:17:34;26.98;;;18.33;;
47009;SDS011;59230;54.164;-3.124;2023-04-28T12:20:07;34.28;;;21.02;;
47009;SDS011;59230;54.164;-3.124;2023-04-28T12:22:47;35.15;;;22.85;;
47009;SDS011;59230;54.164;-3.124;2023-04-28T12:25:17;39.80;;;23.08;;
47009;SDS011;59230;54.164;-3.124;2023-04-28T12:30:32;37.65;;;22.70;;
47009;SDS011;59230;54.164;-3.124;2023-04-28T12:33:19;30.83;;;20.70;;
47009;SDS011;59230;54.164;-3.124;2023-04-28T12:35:47;35.67;;;21.08;;
47009;SDS011;59230;54.164;-3.124;2023-04-28T12:38:15;33.05;;;21.77;;
47009;SDS011;59230;54.164;-3.124;2023-04-28T12:40:42;34.72;;;20.08;;
47009;SDS011;59230;54.164;-3.124;2023-04-28T12:43:09;32.78;;;19.92;;
47009;SDS011;59230;54.164;-3.124;2023-04-28T12:45:37;29.70;;;21.67;;
47009;SDS011;59230;54.164;-3.124;2023-04-28T12:48:03;36.97;;;23.83;;
47009;SDS011;59230;54.164;-3.124;2023-04-28T12:50:29;33.67;;;23.00;;
47009;SDS011;59230;54.164;-3.124;2023-04-28T12:52:59;34.03;;;25.45;;
47009;SDS011;59230;54.164;-3.124;2023-04-28T12:55:27;34.53;;;23.58;;
47009;SDS011;59230;54.164;-3.124;2023-04-28T12:57:59;31.58;;;23.48;;
47009;SDS011;59230;54.164;-3.124;2023-04-28T13:00:32;34.20;;;24.77;;
47009;SDS011;59230;54.164;-3.124;2023-04-28T13:02:57;34.15;;;24.00;;
47009;SDS011;59230;54.164;-3.124;2023-04-28T13:05:23;34.85;;;23.90;;
47009;SDS011;59230;54.164;-3.124;2023-04-28T13:07:49;32.50;;;23.38;;
47009;SDS011;59230;54.164;-3.124;2023-04-28T13:10:17;31.30;;;22.58;;
47009;SDS011;59230;54.164;-3.124;2023-04-28T13:12:42;29.13;;;21.38;;
47009;SDS011;59230;54.164;-3.124;2023-04-28T13:15:08;29.92;;;21.58;;
47009;SDS011;59230;54.164;-3.124;2023-04-28T13:17:36;27.45;;;19.88;;
47009;SDS011;59230;54.164;-3.124;2023-04-28T13:20:05;31.30;;;22.77;;
47009;SDS011;59230;54.164;-3.124;2023-04-28T13:22:33;32.92;;;24.30;;
47009;SDS011;59230;54.164;-3.124;2023-04-28T13:24:59;32.10;;;22.58;;
47009;SDS011;59230;54.164;-3.124;2023-04-28T13:27:28;31.02;;;24.60;;
47009;SDS011;59230;54.164;-3.124;2023-04-28T13:29:54;34.00;;;24.30;;
47009;SDS011;59230;54.164;-3.124;2023-04-28T13:32:24;32.72;;;24.23;;
47009;SDS011;59230;54.164;-3.124;2023-04-28T13:34:51;32.70;;;22.83;;
47009;SDS011;59230;54.164;-3.124;2023-04-28T13:37:18;29.98;;;22.02;;
47009;SDS011;59230;54.164;-3.124;2023-04-28T13:39:47;29.17;;;21.25;;
47009;SDS011;59230;54.164;-3.124;2023-04-28T13:42:13;28.42;;;22.08;;
47009;SDS011;59230;54.164;-3.124;2023-04-28T13:44:41;28.17;;;22.35;;
47009;SDS011;59230;54.164;-3.124;2023-04-28T13:47:08;28.75;;;21.92;;
47009;SDS011;59230;54.164;-3.124;2023-04-28T13:49:36;30.85;;;22.02;;
47009;SDS011;59230;54.164;-3.124;2023-04-28T13:52:03;30.00;;;22.40;;
47009;SDS011;59230;54.164;-3.124;2023-04-28T13:54:28;29.40;;;21.23;;
47009;SDS011;59230;54.164;-3.124;2023-04-28T13:56:55;27.20;;;20.88;;
47009;SDS011;59230;54.164;-3.124;2023-04-28T13:59:21;29.23;;;20.70;;
47009;SDS011;59230;54.164;-3.124;2023-04-28T14:01:50;26.65;;;19.15;;
47009;SDS011;59230;54.164;-3.124;2023-04-28T14:04:17;25.35;;;19.30;;
47009;SDS011;59230;54.164;-3.124;2023-04-28T14:06:46;22.35;;;18.40;;
47009;SDS011;59230;54.164;-3.124;2023-04-28T14:09:11;25.33;;;18.40;;
47009;SDS011;59230;54.164;-3.124;2023-04-28T14:11:37;26.00;;;18.05;;
47009;SDS011;59230;54.164;-3.124;2023-04-28T14:14:03;27.73;;;21.38;;
47009;SDS011;59230;54.164;-3.124;2023-04-28T14:16:28;24.88;;;19.23;;
47009;SDS011;59230;54.164;-3.124;2023-04-28T14:18:54;25.88;;;19.60;;
47009;SDS011;59230;54.164;-3.124;2023-04-28T14:21:20;28.45;;;21.58;;
47009;SDS011;59230;54.164;-3.124;2023-04-28T14:23:49;27.92;;;20.00;;
47009;SDS011;59230;54.164;-3.124;2023-04-28T14:26:19;24.85;;;18.60;;
47009;SDS011;59230;54.164;-3.124;2023-04-28T14:28:46;26.02;;;16.92;;
47009;SDS011;59230;54.164;-3.124;2023-04-28T14:31:18;27.15;;;18.38;;
47009;SDS011;59230;54.164;-3.124;2023-04-28T14:33:47;25.73;;;18.33;;
47009;SDS011;59230;54.164;-3.124;2023-04-28T14:36:17;24.55;;;18.70;;
47009;SDS011;59230;54.164;-3.124;2023-04-28T14:38:44;25.77;;;17.70;;
47009;SDS011;59230;54.164;-3.124;2023-04-28T14:41:09;25.27;;;19.90;;
47009;SDS011;59230;54.164;-3.124;2023-04-28T14:43:35;24.70;;;19.17;;
47009;SDS011;59230;54.164;-3.124;2023-04-28T14:46:06;26.60;;;18.55;;
47009;SDS011;59230;54.164;-3.124;2023-04-28T14:48:34;26.55;;;18.63;;
47009;SDS011;59230;54.164;-3.124;2023-04-28T14:51:01;25.33;;;18.45;;
47009;SDS011;59230;54.164;-3.124;2023-04-28T14:53:26;27.45;;;17.00;;
47009;SDS011;59230;54.164;-3.124;2023-04-28T14:55:53;20.30;;;15.55;;
47009;SDS011;59230;54.164;-3.124;2023-04-28T14:58:19;18.48;;;15.30;;
47009;SDS011;59230;54.164;-3.124;2023-04-28T15:00:44;18.83;;;14.55;;
47009;SDS011;59230;54.164;-3.124;2023-04-28T15:03:10;19.48;;;14.88;;
47009;SDS011;59230;54.164;-3.124;2023-04-28T15:05:36;19.70;;;15.45;;
47009;SDS011;59230;54.164;-3.124;2023-04-28T15:08:02;20.08;;;14.68;;